createdAt,value
2022-09-23T00:01:14.967Z,101584.25
2022-09-23T00:03:47.187Z,101590.47
2022-09-23T00:06:22.119Z,101579.91
2022-09-23T00:08:50.705Z,101582.50
2022-09-23T00:11:20.251Z,101586.84
2022-09-23T00:13:49.896Z,101594.78
2022-09-23T00:16:25.777Z,101581.59
2022-09-23T00:18:52.962Z,101582.44
2022-09-23T00:21:21.991Z,101575.31
2022-09-23T00:23:49.813Z,101581.50
2022-09-23T00:26:20.531Z,101583.31
2022-09-23T00:28:48.926Z,101580.66
2022-09-23T00:31:22.668Z,101576.22
2022-09-23T00:33:59.312Z,101573.56
2022-09-23T00:36:28.340Z,101571.81
2022-09-23T00:38:56.296Z,101565.75
2022-09-23T00:41:24.976Z,101564.81
2022-09-23T00:44:00.510Z,101564.88
2022-09-23T00:46:35.756Z,101562.97
2022-09-23T00:49:29.727Z,101556.94
2022-09-23T00:52:06.432Z,101562.09
2022-09-23T00:54:34.051Z,101562.06
2022-09-23T00:57:03.886Z,101556.81
2022-09-23T00:59:31.050Z,101552.41
2022-09-23T01:02:00.394Z,101550.59
2022-09-23T01:04:29.802Z,101546.22
2022-09-23T01:06:56.793Z,101551.47
2022-09-23T01:09:25.264Z,101546.22
2022-09-23T01:12:22.710Z,101549.72
2022-09-23T01:15:15.989Z,101547.94
2022-09-23T01:18:11.211Z,101548.78
2022-09-23T01:21:22.676Z,101549.66
2022-09-23T01:24:23.807Z,101551.22
2022-09-23T01:27:14.718Z,101543.31
2022-09-23T01:30:05.304Z,101540.75
2022-09-23T01:32:37.941Z,101537.97
2022-09-23T01:35:22.607Z,101539.78
2022-09-23T01:38:07.739Z,101531.84
2022-09-23T01:40:59.306Z,101539.72
2022-09-23T01:43:37.592Z,101536.19
2022-09-23T01:46:17.610Z,101535.31
2022-09-23T01:49:08.980Z,101535.31
2022-09-23T01:51:48.087Z,101537.97
2022-09-23T01:55:08.652Z,101531.81
2022-09-23T01:57:46.933Z,101537.06
2022-09-23T02:00:21.301Z,101534.44
2022-09-23T02:03:01.485Z,101532.75
2022-09-23T02:05:44.732Z,101528.31
2022-09-23T02:08:56.538Z,101522.25
2022-09-23T02:11:24.060Z,101527.50
2022-09-23T02:14:21.902Z,101525.75
2022-09-23T02:16:56.050Z,101520.50
2022-09-23T02:19:43.231Z,101527.66
2022-09-23T02:22:30.806Z,101522.31
2022-09-23T02:24:58.881Z,101523.25
2022-09-23T02:27:34.666Z,101520.56
2022-09-23T02:30:20.710Z,101518.91
2022-09-23T02:33:05.309Z,101514.47
2022-09-23T02:36:02.522Z,101516.28
2022-09-23T02:38:44.558Z,101501.31
2022-09-23T02:41:17.371Z,101509.09
2022-09-23T02:43:53.876Z,101502.03
2022-09-23T02:46:21.794Z,101491.44
2022-09-23T02:49:01.168Z,101488.66
2022-09-23T02:51:34.452Z,101488.56
2022-09-23T02:54:03.546Z,101482.41
2022-09-23T02:56:30.557Z,101483.22
2022-09-23T02:58:58.022Z,101481.47
2022-09-23T03:01:49.519Z,101482.31
2022-09-23T03:04:55.269Z,101469.09
2022-09-23T03:07:42.963Z,101475.16
2022-09-23T03:10:30.380Z,101479.47
2022-09-23T03:13:06.168Z,101479.41
2022-09-23T03:16:12.348Z,101481.13
2022-09-23T03:19:01.529Z,101468.94
2022-09-23T03:21:44.994Z,101457.44
2022-09-23T03:24:14.420Z,101465.31
2022-09-23T03:26:47.404Z,101463.56
2022-09-23T03:29:16.237Z,101453.91
2022-09-23T03:31:44.677Z,101457.41
2022-09-23T03:34:28.242Z,101457.41
2022-09-23T03:37:07.526Z,101457.34
2022-09-23T03:39:57.770Z,101453.84
2022-09-23T03:42:30.128Z,101457.25
2022-09-23T03:44:59.394Z,101450.22
2022-09-23T03:47:28.701Z,101451.97
2022-09-23T03:49:57.961Z,101451.06
2022-09-23T03:52:26.427Z,101450.25
2022-09-23T03:54:53.669Z,101449.31
2022-09-23T03:57:22.234Z,101458.13
2022-09-23T03:59:50.718Z,101450.19
2022-09-23T04:02:19.846Z,101449.28
2022-09-23T04:04:47.358Z,101450.16
2022-09-23T04:07:15.051Z,101455.41
2022-09-23T04:09:42.270Z,101444.97
2022-09-23T04:12:15.091Z,101438.81
2022-09-23T04:14:43.132Z,101435.25
2022-09-23T04:17:10.989Z,101431.72
2022-09-23T04:19:38.647Z,101437.00
2022-09-23T04:22:06.649Z,101434.38
2022-09-23T04:24:35.625Z,101437.06
2022-09-23T04:27:02.721Z,101444.00
2022-09-23T04:29:29.868Z,101444.00
2022-09-23T04:31:57.844Z,101443.13
2022-09-23T04:34:24.910Z,101436.19
2022-09-23T04:36:52.028Z,101439.69
2022-09-23T04:39:19.533Z,101438.78
2022-09-23T04:41:46.673Z,101433.56
2022-09-23T04:44:14.819Z,101436.22
2022-09-23T04:46:43.894Z,101431.00
2022-09-23T04:49:11.146Z,101427.50
2022-09-23T04:51:38.057Z,101430.97
2022-09-23T04:54:05.147Z,101431.91
2022-09-23T04:56:32.935Z,101431.91
2022-09-23T04:59:01.780Z,101424.81
2022-09-23T05:01:34.448Z,101423.13
2022-09-23T05:04:05.404Z,101421.31
2022-09-23T05:06:36.282Z,101419.63
2022-09-23T05:09:07.682Z,101421.38
2022-09-23T05:11:35.794Z,101424.00
2022-09-23T05:14:03.399Z,101424.81
2022-09-23T05:16:30.612Z,101423.13
2022-09-23T05:18:58.177Z,101422.31
2022-09-23T05:21:30.259Z,101425.78
2022-09-23T05:24:01.445Z,101428.50
2022-09-23T05:26:31.624Z,101424.09
2022-09-23T05:28:59.985Z,101432.00
2022-09-23T05:31:29.983Z,101438.19
2022-09-23T05:34:04.722Z,101432.06
2022-09-23T05:36:38.228Z,101432.94
2022-09-23T05:39:08.055Z,101441.72
2022-09-23T05:41:35.942Z,101442.53
2022-09-23T05:44:03.336Z,101443.41
2022-09-23T05:46:31.786Z,101441.75
2022-09-23T05:49:03.023Z,101443.56
2022-09-23T05:51:35.739Z,101442.69
2022-09-23T05:54:04.651Z,101450.59
2022-09-23T05:56:33.525Z,101450.69
2022-09-23T05:59:02.254Z,101446.38
2022-09-23T06:01:34.124Z,101455.22
2022-09-23T06:04:06.021Z,101452.66
2022-09-23T06:06:42.092Z,101454.50
2022-09-23T06:09:16.121Z,101448.50
2022-09-23T06:11:43.304Z,101450.19
2022-09-23T06:14:14.729Z,101447.63
2022-09-23T06:16:43.042Z,101446.03
2022-09-23T06:19:10.545Z,101441.69
2022-09-23T06:21:40.727Z,101440.88
2022-09-23T06:24:09.368Z,101428.63
2022-09-23T06:26:37.944Z,101438.34
2022-09-23T06:29:11.817Z,101438.38
2022-09-23T06:31:40.683Z,101431.44
2022-09-23T06:34:13.475Z,101435.88
2022-09-23T06:36:45.366Z,101439.41
2022-09-23T06:39:20.529Z,101438.56
2022-09-23T06:41:47.645Z,101437.72
2022-09-23T06:44:15.157Z,101441.25
2022-09-23T06:46:42.878Z,101446.59
2022-09-23T06:49:11.890Z,101438.66
2022-09-23T06:51:40.388Z,101432.50
2022-09-23T06:54:17.106Z,101440.44
2022-09-23T06:56:51.184Z,101434.34
2022-09-23T06:59:21.463Z,101434.34
2022-09-23T07:01:51.623Z,101436.09
2022-09-23T07:04:20.216Z,101443.16
2022-09-23T07:06:47.858Z,101445.81
2022-09-23T07:09:18.545Z,101440.50
2022-09-23T07:11:47.706Z,101440.47
2022-09-23T07:14:15.184Z,101441.34
2022-09-23T07:16:44.976Z,101440.44
2022-09-23T07:19:19.646Z,101443.03
2022-09-23T07:21:47.160Z,101446.50
2022-09-23T07:24:19.963Z,101437.63
2022-09-23T07:27:00.177Z,101435.81
2022-09-23T07:29:46.113Z,101443.63
2022-09-23T07:35:39.603Z,101440.78
2022-09-23T07:38:30.411Z,101450.31
2022-09-23T07:41:05.982Z,101444.13
2022-09-23T07:44:37.613Z,101443.22
2022-09-23T07:47:35.681Z,101443.03
2022-09-23T07:50:17.936Z,101444.66
2022-09-23T07:53:03.526Z,101441.69
2022-09-23T07:55:38.346Z,101444.28
2022-09-23T07:58:17.124Z,101440.75
2022-09-23T08:01:00.463Z,101438.91
2022-09-23T08:03:36.147Z,101450.28
2022-09-23T08:06:14.201Z,101449.06
2022-09-23T08:08:45.986Z,101442.97
2022-09-23T08:11:14.384Z,101440.91
2022-09-23T08:13:42.686Z,101445.16
2022-09-23T08:16:10.768Z,101447.75
2022-09-23T08:18:47.478Z,101448.41
2022-09-23T08:21:30.081Z,101448.34
2022-09-23T08:24:06.247Z,101446.63
2022-09-23T08:26:46.267Z,101448.94
2022-09-23T08:29:20.396Z,101454.00
2022-09-23T08:31:54.819Z,101454.81
2022-09-23T08:34:40.092Z,101460.75
2022-09-23T08:37:18.840Z,101442.88
2022-09-23T08:40:07.725Z,101455.09
2022-09-23T08:42:52.249Z,101464.09
2022-09-23T08:45:29.821Z,101462.06
2022-09-23T08:48:19.449Z,101465.31
2022-09-23T08:51:16.648Z,101467.88
2022-09-23T08:54:02.465Z,101469.44
2022-09-23T08:56:47.360Z,101464.94
2022-09-23T08:59:51.881Z,101464.63
2022-09-23T09:02:22.307Z,101463.44
2022-09-23T09:05:10.178Z,101463.97
2022-09-23T09:07:42.338Z,101458.44
2022-09-23T09:10:33.710Z,101459.03
2022-09-23T09:13:36.435Z,101469.25
2022-09-23T09:16:59.871Z,101453.34
2022-09-23T09:20:03.885Z,101464.72
2022-09-23T09:22:52.879Z,101441.75
2022-09-23T09:25:47.003Z,101444.13
2022-09-23T09:28:59.044Z,101448.28
2022-09-23T09:31:46.550Z,101442.34
2022-09-23T09:34:44.335Z,101436.19
2022-09-23T09:37:41.739Z,101440.03
2022-09-23T09:40:14.462Z,101415.69
2022-09-23T09:42:46.902Z,101415.75
2022-09-23T09:45:21.615Z,101407.41
2022-09-23T09:48:13.721Z,101419.44
2022-09-23T09:50:52.063Z,101417.50
2022-09-23T09:53:32.334Z,101418.97
2022-09-23T09:56:10.259Z,101417.72
2022-09-23T09:59:08.332Z,101416.66
2022-09-23T10:01:36.230Z,101417.25
2022-09-23T10:04:33.608Z,101417.25
2022-09-23T10:07:27.693Z,101427.19
2022-09-23T10:09:55.873Z,101418.94
2022-09-23T10:12:49.060Z,101425.06
2022-09-23T10:15:33.314Z,101411.34
2022-09-23T10:18:02.247Z,101415.72
2022-09-23T10:20:38.127Z,101410.19
2022-09-23T10:23:14.744Z,101413.34
2022-09-23T10:25:42.865Z,101405.47
2022-09-23T10:28:52.658Z,101406.47
2022-09-23T10:31:30.270Z,101416.44
2022-09-23T10:34:04.300Z,101403.72
2022-09-23T10:36:33.216Z,101399.66
2022-09-23T10:39:22.814Z,101410.03
2022-09-23T10:42:36.806Z,101408.16
2022-09-23T10:45:43.314Z,101419.94
2022-09-23T10:48:36.222Z,101410.25
2022-09-23T10:51:26.514Z,101413.00
2022-09-23T10:54:23.809Z,101410.94
2022-09-23T10:57:42.780Z,101414.47
2022-09-23T11:00:27.741Z,101415.63
2022-09-23T11:03:43.064Z,101408.31
2022-09-23T11:06:25.339Z,101401.63
2022-09-23T11:09:13.495Z,101398.88
2022-09-23T11:12:14.046Z,101401.78
2022-09-23T11:14:53.808Z,101404.59
2022-09-23T11:18:00.223Z,101395.34
2022-09-23T11:20:59.845Z,101381.34
2022-09-23T11:24:34.997Z,101394.84
2022-09-23T11:27:20.673Z,101384.72
2022-09-23T11:30:08.177Z,101383.16
2022-09-23T11:33:20.127Z,101385.25
2022-09-23T11:35:56.183Z,101370.94
2022-09-23T11:38:44.952Z,101379.19
2022-09-23T11:41:32.029Z,101376.03
2022-09-23T11:44:24.139Z,101378.88
2022-09-23T11:47:02.130Z,101373.91
2022-09-23T11:50:25.960Z,101371.22
2022-09-23T11:53:02.818Z,101361.16
2022-09-23T11:55:57.164Z,101360.25
2022-09-23T11:58:33.347Z,101352.88
2022-09-23T12:01:37.317Z,101361.22
2022-09-23T12:04:14.210Z,101356.47
2022-09-23T12:07:24.730Z,101357.75
2022-09-23T12:10:05.718Z,101351.75
2022-09-23T12:13:10.994Z,101361.00
2022-09-23T12:16:09.986Z,101346.06
2022-09-23T12:19:21.944Z,101358.63
2022-09-23T12:22:13.174Z,101350.56
2022-09-23T12:25:24.009Z,101361.81
2022-09-23T12:27:55.340Z,101350.19
2022-09-23T12:30:32.466Z,101353.75
2022-09-23T12:33:41.113Z,101346.50
2022-09-23T12:36:12.334Z,101339.63
2022-09-23T12:38:46.792Z,101338.09
2022-09-23T12:41:41.390Z,101345.22
2022-09-23T12:44:12.560Z,101339.28
2022-09-23T12:46:47.317Z,101330.56
2022-09-23T12:49:30.335Z,101335.25
2022-09-23T12:52:12.774Z,101331.16
2022-09-23T12:54:42.991Z,101328.00
2022-09-23T12:57:34.998Z,101330.88
2022-09-23T13:00:17.010Z,101329.69
2022-09-23T13:03:15.104Z,101327.50
2022-09-23T13:06:19.779Z,101339.63
2022-09-23T13:08:49.473Z,101329.06
2022-09-23T13:11:29.952Z,101326.13
2022-09-23T13:14:02.640Z,101332.47
2022-09-23T13:16:45.136Z,101335.38
2022-09-23T13:19:34.186Z,101329.19
2022-09-23T13:22:34.804Z,101331.28
2022-09-23T13:25:18.103Z,101325.63
2022-09-23T13:27:51.755Z,101323.72
2022-09-23T13:30:26.851Z,101326.16
2022-09-23T13:33:21.621Z,101316.59
2022-09-23T13:35:51.223Z,101315.47
2022-09-23T13:38:28.148Z,101309.13
2022-09-23T13:41:20.756Z,101301.63
2022-09-23T13:44:00.530Z,101300.56
2022-09-23T13:46:43.384Z,101298.66
2022-09-23T13:49:24.754Z,101298.03
2022-09-23T13:51:55.302Z,101293.69
2022-09-23T13:54:46.088Z,101299.69
2022-09-23T13:57:32.700Z,101290.56
2022-09-23T14:00:21.699Z,101293.00
2022-09-23T14:02:49.000Z,101287.94
2022-09-23T14:05:30.598Z,101286.19
2022-09-23T14:07:57.972Z,101279.72
2022-09-23T14:10:27.916Z,101275.25
2022-09-23T14:12:57.040Z,101282.72
2022-09-23T14:15:24.913Z,101271.59
2022-09-23T14:18:00.666Z,101278.91
2022-09-23T14:20:28.056Z,101268.13
2022-09-23T14:23:13.173Z,101268.38
2022-09-23T14:25:45.791Z,101264.13
2022-09-23T14:28:26.467Z,101263.53
2022-09-23T14:30:57.768Z,101264.63
2022-09-23T14:33:39.342Z,101261.19
2022-09-23T14:36:37.097Z,101255.84
2022-09-23T14:39:26.160Z,101257.69
2022-09-23T14:41:54.050Z,101253.31
2022-09-23T14:44:30.520Z,101258.81
2022-09-23T14:47:01.211Z,101254.69
2022-09-23T14:49:32.024Z,101250.47
2022-09-23T14:52:06.657Z,101244.31
2022-09-23T14:54:42.359Z,101238.91
2022-09-23T14:57:31.507Z,101233.59
2022-09-23T15:00:14.316Z,101233.63
2022-09-23T15:03:12.758Z,101237.16
2022-09-23T15:05:52.962Z,101231.16
2022-09-23T15:08:27.284Z,101221.38
2022-09-23T15:10:55.578Z,101224.13
2022-09-23T15:13:34.176Z,101223.94
2022-09-23T15:16:02.195Z,101221.38
2022-09-23T15:18:39.132Z,101230.22
2022-09-23T15:21:17.865Z,101227.59
2022-09-23T15:23:48.453Z,101230.34
2022-09-23T15:26:25.427Z,101227.53
2022-09-23T15:28:56.124Z,101223.06
2022-09-23T15:31:27.168Z,101222.91
2022-09-23T15:33:55.960Z,101224.59
2022-09-23T15:36:27.884Z,101226.91
2022-09-23T15:39:08.786Z,101224.25
2022-09-23T15:41:35.808Z,101223.97
2022-09-23T15:44:17.844Z,101228.31
2022-09-23T15:46:51.969Z,101219.25
2022-09-23T15:49:41.463Z,101225.41
2022-09-23T15:52:12.227Z,101221.00
2022-09-23T15:54:39.324Z,101220.22
2022-09-23T15:57:06.634Z,101214.81
2022-09-23T15:59:33.614Z,101216.09
2022-09-23T16:02:05.760Z,101216.22
2022-09-23T16:04:33.020Z,101220.97
2022-09-23T16:07:01.618Z,101213.41
2022-09-23T16:09:31.573Z,101207.50
2022-09-23T16:11:58.667Z,101208.69
2022-09-23T16:14:25.682Z,101198.28
2022-09-23T16:16:53.850Z,101197.44
2022-09-23T16:19:20.881Z,101201.19
2022-09-23T16:21:48.193Z,101190.84
2022-09-23T16:24:18.453Z,101193.69
2022-09-23T16:26:47.804Z,101191.41
2022-09-23T16:29:15.611Z,101194.41
2022-09-23T16:31:43.070Z,101193.56
2022-09-23T16:34:10.212Z,101193.78
2022-09-23T16:36:43.297Z,101196.59
2022-09-23T16:39:13.600Z,101190.75
2022-09-23T16:41:48.232Z,101185.66
2022-09-23T16:44:16.396Z,101183.97
2022-09-23T16:46:43.459Z,101181.72
2022-09-23T16:49:12.148Z,101189.84
2022-09-23T16:51:39.872Z,101191.81
2022-09-23T16:54:12.504Z,101192.78
2022-09-23T16:56:46.400Z,101191.38
2022-09-23T16:59:15.601Z,101188.88
2022-09-23T17:02:01.491Z,101189.13
2022-09-23T17:04:28.698Z,101184.13
2022-09-23T17:06:56.477Z,101191.31
2022-09-23T17:09:29.199Z,101187.59
2022-09-23T17:12:13.817Z,101204.75
2022-09-23T17:14:40.871Z,101197.81
2022-09-23T17:17:09.589Z,101196.22
2022-09-23T17:19:38.455Z,101195.47
2022-09-23T17:22:05.443Z,101197.44
2022-09-23T17:24:32.466Z,101190.44
2022-09-23T17:26:59.564Z,101189.66
2022-09-23T17:29:26.981Z,101187.91
2022-09-23T17:31:54.367Z,101185.47
2022-09-23T17:34:21.578Z,101188.25
2022-09-23T17:36:48.518Z,101186.50
2022-09-23T17:39:17.084Z,101192.03
2022-09-23T17:41:45.403Z,101184.25
2022-09-23T17:44:12.921Z,101184.31
2022-09-23T17:46:39.833Z,101185.31
2022-09-23T17:49:08.016Z,101186.94
2022-09-23T17:51:35.270Z,101183.56
2022-09-23T17:54:02.198Z,101187.31
2022-09-23T17:56:33.918Z,101180.06
2022-09-23T17:59:01.987Z,101188.22
2022-09-23T18:01:29.959Z,101174.22
2022-09-23T18:04:00.056Z,101184.97
2022-09-23T18:06:32.509Z,101186.84
2022-09-23T18:09:03.998Z,101192.19
2022-09-23T18:11:38.963Z,101182.50
2022-09-23T18:14:19.236Z,101189.81
2022-09-23T18:16:53.825Z,101199.66
2022-09-23T18:19:26.812Z,101189.91
2022-09-23T18:21:57.265Z,101185.53
2022-09-23T18:24:32.220Z,101197.91
2022-09-23T18:27:01.081Z,101191.84
2022-09-23T18:29:28.658Z,101193.69
2022-09-23T18:31:56.161Z,101197.31
2022-09-23T18:34:23.676Z,101194.66
2022-09-23T18:36:50.848Z,101197.41
2022-09-23T18:39:18.008Z,101193.88
2022-09-23T18:41:44.954Z,101206.34
2022-09-23T18:44:12.057Z,101204.63
2022-09-23T18:46:39.022Z,101196.66
2022-09-23T18:49:24.909Z,101199.34
2022-09-23T18:51:57.596Z,101200.28
2022-09-23T18:54:28.146Z,101203.84
2022-09-23T18:56:55.872Z,101210.09
2022-09-23T18:59:26.285Z,101209.22
2022-09-23T19:01:56.863Z,101221.78
2022-09-23T19:04:26.282Z,101219.19
2022-09-23T19:06:56.323Z,101221.88
2022-09-23T19:09:23.685Z,101224.59
2022-09-23T19:11:52.516Z,101224.72
2022-09-23T19:14:19.893Z,101220.31
2022-09-23T19:16:49.079Z,101220.50
2022-09-23T19:19:16.420Z,101227.72
2022-09-23T19:21:43.404Z,101226.91
2022-09-23T19:24:15.598Z,101228.59
2022-09-23T19:26:44.160Z,101228.09
2022-09-23T19:29:17.144Z,101229.22
2022-09-23T19:31:44.388Z,101230.84
2022-09-23T19:34:29.011Z,101232.81
2022-09-23T19:36:57.869Z,101228.50
2022-09-23T19:39:28.505Z,101225.03
2022-09-23T19:41:56.133Z,101223.34
2022-09-23T19:44:25.364Z,101217.97
2022-09-23T19:46:56.297Z,101224.00
2022-09-23T19:49:24.973Z,101224.97
2022-09-23T19:51:55.256Z,101223.19
2022-09-23T19:54:22.695Z,101231.16
2022-09-23T19:56:50.380Z,101222.53
2022-09-23T19:59:19.372Z,101217.72
2022-09-23T20:01:48.247Z,101215.13
2022-09-23T20:04:16.629Z,101216.97
2022-09-23T20:06:45.864Z,101215.19
2022-09-23T20:09:13.041Z,101206.53
2022-09-23T20:11:42.969Z,101208.28
2022-09-23T20:14:11.016Z,101210.16
2022-09-23T20:16:38.470Z,101209.97
2022-09-23T20:19:05.941Z,101207.84
2022-09-23T20:21:33.835Z,101207.06
2022-09-23T20:24:02.319Z,101205.50
2022-09-23T20:26:48.147Z,101205.47
2022-09-23T20:29:15.105Z,101200.47
2022-09-23T20:31:42.299Z,101202.34
2022-09-23T20:34:10.689Z,101213.13
2022-09-23T20:36:39.545Z,101206.03
2022-09-23T20:39:07.194Z,101205.38
2022-09-23T20:41:38.139Z,101205.47
2022-09-23T20:44:14.471Z,101201.13
2022-09-23T20:46:48.233Z,101203.84
2022-09-23T20:49:17.741Z,101198.50
2022-09-23T20:51:45.160Z,101195.84
2022-09-23T20:54:12.294Z,101187.06
2022-09-23T20:56:39.438Z,101190.56
2022-09-23T20:59:07.082Z,101193.13
2022-09-23T21:01:37.125Z,101185.06
2022-09-23T21:04:05.729Z,101193.06
2022-09-23T21:06:36.749Z,101179.72
2022-09-23T21:09:06.053Z,101181.50
2022-09-23T21:11:33.945Z,101180.50
2022-09-23T21:14:01.513Z,101179.47
2022-09-23T21:16:29.125Z,101177.72
2022-09-23T21:18:57.678Z,101184.81
2022-09-23T21:21:25.607Z,101177.69
2022-09-23T21:23:52.630Z,101178.44
2022-09-23T21:26:25.726Z,101185.63
2022-09-23T21:28:57.587Z,101179.63
2022-09-23T21:31:34.604Z,101187.56
2022-09-23T21:34:05.163Z,101174.31
2022-09-23T21:36:38.266Z,101172.41
2022-09-23T21:39:07.808Z,101179.78
2022-09-23T21:41:35.007Z,101177.19
2022-09-23T21:44:04.468Z,101167.41
2022-09-23T21:46:35.719Z,101171.78
2022-09-23T21:49:04.055Z,101172.81
2022-09-23T21:51:42.783Z,101172.84
2022-09-23T21:54:16.779Z,101179.03
2022-09-23T21:56:44.712Z,101176.38
2022-09-23T21:59:11.827Z,101178.16
2022-09-23T22:01:44.470Z,101191.47
2022-09-23T22:04:18.755Z,101185.31
2022-09-23T22:06:46.800Z,101176.53
2022-09-23T22:09:21.070Z,101174.75
2022-09-23T22:12:09.609Z,101170.41
2022-09-23T22:14:38.830Z,101171.31
2022-09-23T22:17:10.837Z,101178.53
2022-09-23T22:19:44.352Z,101182.09
2022-09-23T22:22:17.379Z,101169.72
2022-09-23T22:24:46.932Z,101170.59
2022-09-23T22:27:17.776Z,101172.28
2022-09-23T22:30:03.207Z,101172.28
2022-09-23T22:32:43.637Z,101173.28
2022-09-23T22:35:17.717Z,101166.13
2022-09-23T22:37:45.980Z,101165.13
2022-09-23T22:40:15.368Z,101166.00
2022-09-23T22:42:43.615Z,101165.13
2022-09-23T22:45:12.468Z,101166.88
2022-09-23T22:47:42.012Z,101164.22
2022-09-23T22:50:09.992Z,101169.50
2022-09-23T22:52:37.833Z,101169.53
2022-09-23T22:55:08.034Z,101158.03
2022-09-23T22:57:35.495Z,101164.34
2022-09-23T23:00:08.411Z,101163.41
2022-09-23T23:02:35.599Z,101166.94
2022-09-23T23:05:02.875Z,101156.28
2022-09-23T23:07:29.839Z,101166.03
2022-09-23T23:09:56.988Z,101167.78
2022-09-23T23:12:24.208Z,101167.78
2022-09-23T23:14:51.399Z,101163.44
2022-09-23T23:17:18.919Z,101152.78
2022-09-23T23:19:47.458Z,101148.41
2022-09-23T23:22:14.394Z,101144.13
2022-09-23T23:24:41.316Z,101146.91
2022-09-23T23:27:08.638Z,101148.75
2022-09-23T23:29:35.773Z,101145.22
2022-09-23T23:32:02.938Z,101140.81
2022-09-23T23:34:30.210Z,101138.16
2022-09-23T23:36:57.539Z,101139.94
2022-09-23T23:39:25.818Z,101137.41
2022-09-23T23:41:57.172Z,101141.00
2022-09-23T23:44:26.466Z,101136.66
2022-09-23T23:46:54.641Z,101134.19
2022-09-23T23:49:24.563Z,101140.44
2022-09-23T23:51:51.597Z,101132.56
2022-09-23T23:54:18.583Z,101129.09
2022-09-23T23:56:45.705Z,101130.03
2022-09-23T23:59:12.962Z,101125.66
